createdAt,value
2023-05-14T00:00:19.231Z,74.22
2023-05-14T00:02:45.945Z,74.37
2023-05-14T00:05:12.458Z,74.10
2023-05-14T00:07:38.846Z,74.32
2023-05-14T00:10:05.633Z,74.75
2023-05-14T00:12:32.119Z,75.03
2023-05-14T00:14:58.427Z,75.17
2023-05-14T00:17:24.791Z,75.54
2023-05-14T00:19:51.158Z,75.52
2023-05-14T00:22:17.507Z,75.36
2023-05-14T00:24:43.909Z,75.57
2023-05-14T00:27:10.267Z,75.62
2023-05-14T00:29:36.578Z,75.73
2023-05-14T00:32:03.696Z,76.01
2023-05-14T00:34:30.076Z,76.15
2023-05-14T00:36:56.418Z,76.35
2023-05-14T00:39:22.720Z,76.27
2023-05-14T00:41:49.776Z,76.11
2023-05-14T00:44:16.151Z,76.54
2023-05-14T00:46:43.605Z,76.73
2023-05-14T00:49:10.648Z,76.79
2023-05-14T00:51:37.148Z,76.77
2023-05-14T00:54:03.751Z,76.83
2023-05-14T00:56:30.204Z,77.20
2023-05-14T00:58:56.538Z,77.60
2023-05-14T01:01:23.089Z,77.49
2023-05-14T01:03:49.932Z,77.28
2023-05-14T01:06:36.926Z,77.01
2023-05-14T01:09:08.391Z,77.41
2023-05-14T01:12:05.586Z,77.44
2023-05-14T01:14:52.322Z,77.92
2023-05-14T01:17:20.250Z,77.75
2023-05-14T01:19:48.372Z,77.98
2023-05-14T01:22:14.784Z,78.34
2023-05-14T01:24:41.140Z,78.41
2023-05-14T01:27:31.590Z,78.35
2023-05-14T01:30:13.786Z,78.63
2023-05-14T01:32:41.907Z,78.46
2023-05-14T01:35:09.701Z,79.02
2023-05-14T01:37:36.700Z,79.15
2023-05-14T01:40:04.424Z,79.00
2023-05-14T01:42:31.175Z,78.90
2023-05-14T01:44:57.913Z,79.01
2023-05-14T01:47:24.406Z,78.89
2023-05-14T01:49:50.913Z,79.41
2023-05-14T01:52:20.850Z,79.54
2023-05-14T01:54:48.474Z,79.49
2023-05-14T01:57:14.815Z,79.50
2023-05-14T01:59:41.140Z,79.76
2023-05-14T02:02:07.499Z,79.48
2023-05-14T02:04:33.823Z,79.77
2023-05-14T02:07:00.388Z,79.81
2023-05-14T02:09:26.725Z,79.78
2023-05-14T02:11:53.037Z,79.86
2023-05-14T02:14:19.347Z,79.84
2023-05-14T02:16:45.749Z,79.94
2023-05-14T02:19:12.220Z,79.98
2023-05-14T02:21:38.621Z,80.57
2023-05-14T02:24:05.132Z,80.63
2023-05-14T02:26:31.460Z,80.63
2023-05-14T02:28:58.086Z,80.44
2023-05-14T02:31:24.690Z,80.26
2023-05-14T02:33:51.205Z,80.64
2023-05-14T02:36:17.561Z,80.32
2023-05-14T02:38:43.952Z,80.60
2023-05-14T02:41:10.282Z,80.50
2023-05-14T02:43:36.640Z,80.57
2023-05-14T02:46:03.647Z,80.72
2023-05-14T02:48:30.028Z,80.56
2023-05-14T02:50:56.358Z,80.73
2023-05-14T02:53:22.714Z,80.56
2023-05-14T02:55:49.098Z,80.79
2023-05-14T02:58:15.851Z,81.00
2023-05-14T03:00:42.236Z,80.81
2023-05-14T03:03:08.969Z,80.95
2023-05-14T03:05:35.794Z,80.95
2023-05-14T03:08:02.323Z,80.96
2023-05-14T03:10:28.651Z,80.97
2023-05-14T03:12:55.013Z,80.81
2023-05-14T03:15:21.410Z,81.00
2023-05-14T03:17:47.786Z,81.30
2023-05-14T03:20:14.221Z,81.01
2023-05-14T03:22:40.641Z,81.30
2023-05-14T03:25:07.344Z,81.48
2023-05-14T03:27:34.505Z,81.30
2023-05-14T03:30:01.069Z,81.36
2023-05-14T03:32:27.605Z,81.44
2023-05-14T03:34:53.980Z,81.94
2023-05-14T03:37:20.350Z,81.73
2023-05-14T03:39:46.667Z,81.71
2023-05-14T03:42:13.090Z,82.13
2023-05-14T03:44:39.445Z,82.07
2023-05-14T03:47:05.985Z,82.01
2023-05-14T03:49:32.343Z,82.42
2023-05-14T03:51:59.363Z,82.10
2023-05-14T03:54:26.488Z,82.10
2023-05-14T03:56:52.843Z,81.98
2023-05-14T03:59:19.178Z,82.21
2023-05-14T04:01:45.548Z,82.31
2023-05-14T04:04:12.036Z,82.11
2023-05-14T04:06:39.522Z,82.07
2023-05-14T04:09:05.866Z,82.44
2023-05-14T04:11:32.205Z,82.48
2023-05-14T04:13:58.736Z,82.64
2023-05-14T04:16:25.074Z,82.57
2023-05-14T04:18:51.509Z,82.32
2023-05-14T04:21:17.898Z,82.48
2023-05-14T04:23:44.466Z,82.68
2023-05-14T04:26:11.183Z,82.67
2023-05-14T04:28:37.551Z,82.74
2023-05-14T04:31:04.299Z,82.87
2023-05-14T04:33:30.976Z,82.76
2023-05-14T04:35:57.457Z,82.87
2023-05-14T04:38:23.774Z,82.62
2023-05-14T04:40:50.178Z,82.58
2023-05-14T04:43:17.450Z,82.94
2023-05-14T04:45:43.791Z,82.59
2023-05-14T04:48:10.400Z,82.37
2023-05-14T04:50:36.864Z,82.27
2023-05-14T04:53:03.176Z,82.43
2023-05-14T04:55:29.616Z,82.09
2023-05-14T04:57:56.022Z,82.26
2023-05-14T05:00:23.015Z,81.87
2023-05-14T05:02:49.619Z,81.68
2023-05-14T05:05:16.027Z,81.60
2023-05-14T05:07:42.429Z,81.92
2023-05-14T05:10:09.205Z,82.17
2023-05-14T05:12:35.783Z,82.13
2023-05-14T05:15:02.331Z,82.00
2023-05-14T05:17:29.227Z,81.32
2023-05-14T05:19:55.648Z,81.19
2023-05-14T05:22:22.103Z,80.97
2023-05-14T05:24:49.959Z,81.35
2023-05-14T05:27:16.591Z,80.95
2023-05-14T05:29:44.141Z,80.99
2023-05-14T05:32:10.616Z,81.04
2023-05-14T05:34:37.096Z,80.70
2023-05-14T05:37:03.702Z,80.91
2023-05-14T05:39:34.571Z,80.53
2023-05-14T05:42:02.335Z,80.21
2023-05-14T05:44:28.713Z,80.11
2023-05-14T05:46:57.079Z,80.37
2023-05-14T05:49:23.871Z,80.27
2023-05-14T05:51:50.314Z,80.52
2023-05-14T05:54:16.644Z,79.91
2023-05-14T05:56:43.206Z,80.24
2023-05-14T05:59:09.926Z,80.54
2023-05-14T06:01:36.667Z,80.59
2023-05-14T06:04:04.393Z,80.07
2023-05-14T06:06:32.576Z,80.05
2023-05-14T06:08:59.120Z,80.14
2023-05-14T06:11:25.531Z,79.89
2023-05-14T06:13:51.837Z,79.52
2023-05-14T06:16:18.388Z,79.46
2023-05-14T06:18:44.821Z,79.26
2023-05-14T06:21:11.159Z,79.63
2023-05-14T06:23:37.491Z,79.85
2023-05-14T06:26:04.122Z,79.61
2023-05-14T06:28:30.430Z,80.03
2023-05-14T06:30:56.740Z,79.33
2023-05-14T06:33:29.679Z,79.19
2023-05-14T06:36:04.442Z,79.28
2023-05-14T06:38:30.799Z,79.32
2023-05-14T06:40:57.145Z,78.63
2023-05-14T06:43:23.574Z,77.06
2023-05-14T06:45:50.887Z,77.84
2023-05-14T06:48:21.011Z,71.84
2023-05-14T06:50:48.876Z,65.35
2023-05-14T06:53:15.497Z,64.25
2023-05-14T06:55:41.898Z,65.38
2023-05-14T06:58:08.338Z,68.03
2023-05-14T07:00:35.013Z,67.18
2023-05-14T07:03:01.407Z,67.49
2023-05-14T07:05:27.957Z,67.72
2023-05-14T07:07:54.328Z,68.15
2023-05-14T07:10:20.786Z,66.60
2023-05-14T07:12:47.735Z,63.75
2023-05-14T07:15:14.078Z,61.33
2023-05-14T07:17:40.791Z,62.53
2023-05-14T07:20:07.844Z,60.11
2023-05-14T07:22:34.180Z,57.16
2023-05-14T07:25:00.604Z,58.16
2023-05-14T07:27:27.012Z,56.94
2023-05-14T07:29:53.569Z,55.93
2023-05-14T07:32:19.874Z,56.10
2023-05-14T07:34:46.295Z,58.58
2023-05-14T07:37:12.713Z,60.73
2023-05-14T07:39:39.098Z,59.88
2023-05-14T07:42:05.653Z,60.38
2023-05-14T07:44:32.039Z,60.73
2023-05-14T07:46:58.426Z,60.17
2023-05-14T07:49:25.047Z,60.53
2023-05-14T07:51:51.389Z,60.59
2023-05-14T07:54:17.732Z,60.94
2023-05-14T07:56:44.434Z,61.54
2023-05-14T07:59:10.804Z,61.32
2023-05-14T08:01:39.154Z,61.28
2023-05-14T08:04:06.078Z,62.79
2023-05-14T08:06:32.513Z,61.44
2023-05-14T08:08:58.855Z,61.24
2023-05-14T08:11:26.013Z,62.52
2023-05-14T08:13:52.384Z,63.03
2023-05-14T08:16:18.760Z,63.29
2023-05-14T08:18:45.291Z,63.78
2023-05-14T08:21:11.660Z,63.90
2023-05-14T08:23:38.135Z,64.48
2023-05-14T08:26:04.592Z,63.82
2023-05-14T08:28:30.988Z,64.06
2023-05-14T08:30:57.310Z,64.55
2023-05-14T08:33:23.651Z,65.68
2023-05-14T08:35:52.832Z,65.84
2023-05-14T08:38:19.157Z,66.44
2023-05-14T08:40:55.697Z,65.99
2023-05-14T08:43:26.406Z,65.20
2023-05-14T08:45:58.228Z,67.06
2023-05-14T08:48:28.147Z,65.35
2023-05-14T08:50:54.996Z,66.11
2023-05-14T08:53:21.348Z,64.67
2023-05-14T08:55:50.614Z,64.58
2023-05-14T08:58:17.131Z,65.31
2023-05-14T09:00:43.466Z,63.63
2023-05-14T09:03:10.162Z,62.90
2023-05-14T09:05:37.211Z,63.85
2023-05-14T09:08:03.606Z,64.43
2023-05-14T09:10:29.928Z,64.34
2023-05-14T09:12:56.266Z,64.65
2023-05-14T09:15:27.544Z,65.47
2023-05-14T09:17:53.991Z,65.68
2023-05-14T09:20:20.922Z,65.40
2023-05-14T09:22:47.373Z,62.95
2023-05-14T09:25:13.744Z,64.15
2023-05-14T09:27:40.212Z,63.73
2023-05-14T09:30:11.795Z,63.46
2023-05-14T09:32:46.084Z,62.88
2023-05-14T09:35:20.736Z,63.06
2023-05-14T09:37:52.606Z,62.61
2023-05-14T09:40:20.606Z,63.03
2023-05-14T09:42:48.971Z,62.84
2023-05-14T09:45:15.938Z,63.21
2023-05-14T09:47:42.825Z,62.71
2023-05-14T09:50:09.589Z,64.25
2023-05-14T09:52:37.160Z,62.91
2023-05-14T09:55:04.059Z,63.62
2023-05-14T09:57:30.849Z,63.70
2023-05-14T09:59:57.180Z,63.43
2023-05-14T10:02:26.422Z,65.15
2023-05-14T10:04:54.556Z,64.78
2023-05-14T10:07:29.177Z,64.01
2023-05-14T10:10:01.588Z,64.25
2023-05-14T10:12:33.603Z,63.86
2023-05-14T10:15:03.555Z,63.57
2023-05-14T10:17:34.303Z,64.72
2023-05-14T10:20:02.603Z,62.91
2023-05-14T10:22:33.583Z,63.64
2023-05-14T10:25:00.620Z,63.17
2023-05-14T10:27:27.440Z,62.59
2023-05-14T10:29:55.548Z,64.62
2023-05-14T10:32:25.060Z,64.26
2023-05-14T10:34:52.641Z,65.21
2023-05-14T10:37:21.634Z,63.56
2023-05-14T10:39:58.184Z,62.83
2023-05-14T10:42:27.714Z,62.28
2023-05-14T10:44:58.245Z,60.20
2023-05-14T10:47:26.604Z,60.97
2023-05-14T10:49:55.851Z,61.69
2023-05-14T10:52:22.980Z,61.81
2023-05-14T10:54:56.888Z,59.16
2023-05-14T10:57:27.146Z,58.84
2023-05-14T10:59:56.140Z,59.43
2023-05-14T11:02:25.534Z,58.33
2023-05-14T11:05:03.931Z,60.42
2023-05-14T11:07:36.622Z,59.00
2023-05-14T11:10:07.883Z,58.05
2023-05-14T11:12:36.221Z,57.46
2023-05-14T11:15:04.894Z,58.94
2023-05-14T11:17:31.996Z,56.84
2023-05-14T11:19:59.214Z,56.20
2023-05-14T11:22:25.775Z,55.41
2023-05-14T11:24:52.635Z,57.25
2023-05-14T11:27:19.405Z,58.45
2023-05-14T11:29:46.917Z,58.19
2023-05-14T11:32:14.493Z,56.57
2023-05-14T11:34:44.731Z,55.48
2023-05-14T11:37:12.896Z,56.71
2023-05-14T11:39:40.131Z,55.00
2023-05-14T11:42:16.693Z,53.59
2023-05-14T11:44:44.496Z,53.10
2023-05-14T11:47:11.720Z,54.09
2023-05-14T11:49:38.580Z,54.92
2023-05-14T11:52:06.641Z,54.78
2023-05-14T11:54:34.233Z,53.01
2023-05-14T11:57:02.561Z,53.87
2023-05-14T11:59:31.713Z,56.24
2023-05-14T12:02:02.375Z,53.30
2023-05-14T12:04:29.393Z,54.54
2023-05-14T12:06:58.580Z,55.00
2023-05-14T12:09:25.235Z,57.16
2023-05-14T12:11:52.492Z,56.13
2023-05-14T12:14:23.373Z,56.12
2023-05-14T12:16:51.340Z,58.94
2023-05-14T12:19:19.363Z,56.35
2023-05-14T12:21:47.987Z,54.90
2023-05-14T12:24:17.012Z,53.79
2023-05-14T12:26:50.761Z,53.90
2023-05-14T12:29:17.418Z,54.68
2023-05-14T12:31:48.305Z,55.06
2023-05-14T12:34:15.432Z,56.50
2023-05-14T12:36:42.217Z,54.64
2023-05-14T12:39:09.716Z,52.85
2023-05-14T12:41:36.885Z,51.21
2023-05-14T12:44:04.474Z,52.69
2023-05-14T12:46:30.951Z,52.16
2023-05-14T12:48:57.427Z,52.66
2023-05-14T12:51:23.957Z,52.09
2023-05-14T12:53:51.561Z,52.63
2023-05-14T12:56:17.967Z,54.76
2023-05-14T12:58:46.506Z,52.33
2023-05-14T13:01:12.897Z,52.09
2023-05-14T13:03:39.864Z,51.25
2023-05-14T13:06:06.449Z,53.97
2023-05-14T13:08:32.782Z,52.18
2023-05-14T13:10:59.121Z,51.73
2023-05-14T13:13:25.719Z,54.40
2023-05-14T13:15:53.361Z,52.87
2023-05-14T13:18:19.776Z,53.42
2023-05-14T13:20:47.429Z,55.88
2023-05-14T13:23:14.560Z,54.10
2023-05-14T13:25:41.018Z,54.11
2023-05-14T13:28:08.423Z,55.31
2023-05-14T13:30:34.744Z,53.34
2023-05-14T13:33:01.190Z,53.21
2023-05-14T13:35:27.789Z,53.49
2023-05-14T13:37:54.116Z,52.90
2023-05-14T13:40:20.913Z,53.62
2023-05-14T13:42:47.222Z,52.25
2023-05-14T13:45:13.625Z,54.34
2023-05-14T13:47:40.339Z,53.08
2023-05-14T13:50:07.307Z,53.65
2023-05-14T13:52:33.637Z,51.56
2023-05-14T13:55:00.018Z,51.54
2023-05-14T13:57:26.350Z,51.73
2023-05-14T13:59:52.699Z,52.66
2023-05-14T14:02:19.061Z,53.31
2023-05-14T14:04:45.449Z,53.42
2023-05-14T14:07:11.795Z,54.31
2023-05-14T14:09:38.145Z,52.53
2023-05-14T14:12:05.008Z,53.20
2023-05-14T14:14:31.514Z,52.56
2023-05-14T14:16:57.933Z,53.01
2023-05-14T14:19:24.419Z,54.90
2023-05-14T14:24:22.095Z,53.61
2023-05-14T14:26:48.602Z,50.94
2023-05-14T14:29:14.925Z,53.18
2023-05-14T14:31:41.389Z,54.10
2023-05-14T14:34:07.790Z,51.51
2023-05-14T14:36:34.173Z,52.40
2023-05-14T14:39:00.514Z,49.84
2023-05-14T14:41:27.302Z,47.52
2023-05-14T14:43:53.793Z,52.29
2023-05-14T14:46:20.266Z,49.09
2023-05-14T14:48:46.677Z,49.03
2023-05-14T14:51:13.067Z,50.35
2023-05-14T14:53:40.487Z,51.28
2023-05-14T14:56:07.070Z,51.27
2023-05-14T14:58:33.583Z,51.79
2023-05-14T15:01:01.122Z,49.87
2023-05-14T15:03:27.905Z,49.24
2023-05-14T15:05:54.374Z,51.02
2023-05-14T15:08:26.711Z,50.03
2023-05-14T15:10:53.809Z,53.50
2023-05-14T15:13:20.566Z,52.87
2023-05-14T15:15:47.334Z,51.46
2023-05-14T15:18:13.726Z,53.33
2023-05-14T15:20:40.215Z,54.61
2023-05-14T15:23:06.670Z,53.03
2023-05-14T15:25:32.999Z,54.48
2023-05-14T15:27:59.348Z,54.89
2023-05-14T15:30:25.718Z,57.12
2023-05-14T15:32:52.237Z,53.43
2023-05-14T15:35:18.595Z,53.52
2023-05-14T15:37:45.016Z,54.28
2023-05-14T15:40:12.144Z,54.92
2023-05-14T15:42:41.904Z,54.32
2023-05-14T15:45:10.260Z,55.14
2023-05-14T15:47:36.607Z,54.78
2023-05-14T15:50:03.976Z,54.74
2023-05-14T15:52:30.369Z,54.72
2023-05-14T15:54:57.396Z,54.93
2023-05-14T15:57:24.045Z,54.92
2023-05-14T15:59:51.338Z,53.22
2023-05-14T16:02:18.782Z,53.19
2023-05-14T16:04:45.243Z,54.67
2023-05-14T16:07:14.739Z,54.26
2023-05-14T16:09:41.356Z,55.38
2023-05-14T16:12:08.361Z,55.14
2023-05-14T16:14:35.715Z,54.96
2023-05-14T16:17:02.194Z,55.04
2023-05-14T16:19:28.784Z,53.05
2023-05-14T16:21:55.217Z,53.92
2023-05-14T16:24:21.696Z,54.58
2023-05-14T16:26:48.087Z,56.18
2023-05-14T16:29:14.464Z,58.19
2023-05-14T16:31:40.860Z,59.12
2023-05-14T16:34:07.229Z,59.77
2023-05-14T16:36:33.592Z,60.09
2023-05-14T16:39:07.441Z,59.79
2023-05-14T16:41:35.642Z,60.68
2023-05-14T16:44:02.159Z,59.86
2023-05-14T16:46:29.272Z,59.72
2023-05-14T16:48:56.149Z,58.11
2023-05-14T16:51:22.740Z,59.17
2023-05-14T16:53:49.231Z,58.11
2023-05-14T16:56:15.824Z,59.77
2023-05-14T16:58:42.233Z,58.53
2023-05-14T17:01:09.808Z,59.44
2023-05-14T17:03:36.824Z,60.53
2023-05-14T17:06:04.496Z,61.07
2023-05-14T17:08:33.410Z,60.51
2023-05-14T17:10:59.862Z,60.97
2023-05-14T17:13:26.254Z,62.31
2023-05-14T17:15:52.719Z,62.64
2023-05-14T17:18:19.375Z,63.65
2023-05-14T17:20:45.992Z,65.08
2023-05-14T17:23:12.438Z,65.96
2023-05-14T17:25:38.870Z,66.78
2023-05-14T17:28:05.473Z,67.75
2023-05-14T17:30:32.008Z,68.48
2023-05-14T17:32:58.478Z,68.90
2023-05-14T17:35:25.704Z,69.31
2023-05-14T17:37:52.229Z,69.41
2023-05-14T17:40:18.620Z,69.21
2023-05-14T17:42:45.372Z,69.14
2023-05-14T17:45:13.048Z,68.95
2023-05-14T17:47:39.487Z,68.74
2023-05-14T17:50:06.602Z,68.68
2023-05-14T17:52:32.962Z,69.15
2023-05-14T17:54:59.339Z,69.56
2023-05-14T17:57:26.444Z,69.75
2023-05-14T17:59:52.763Z,70.25
2023-05-14T18:02:19.101Z,70.23
2023-05-14T18:04:46.544Z,70.69
2023-05-14T18:07:12.979Z,71.05
2023-05-14T18:09:39.317Z,71.11
2023-05-14T18:12:06.047Z,71.74
2023-05-14T18:14:32.358Z,72.23
2023-05-14T18:16:58.952Z,72.27
2023-05-14T18:19:25.508Z,72.57
2023-05-14T18:21:51.931Z,73.33
2023-05-14T18:24:18.279Z,73.16
2023-05-14T18:26:44.664Z,72.99
2023-05-14T18:29:11.016Z,73.44
2023-05-14T18:31:37.411Z,73.81
2023-05-14T18:34:03.744Z,73.73
2023-05-14T18:36:30.080Z,74.09
2023-05-14T18:38:56.438Z,74.27
2023-05-14T18:41:23.433Z,74.47
2023-05-14T18:43:49.914Z,74.55
2023-05-14T18:46:16.311Z,73.96
2023-05-14T18:48:42.738Z,73.79
2023-05-14T18:51:11.090Z,73.78
2023-05-14T18:53:37.471Z,73.38
2023-05-14T18:56:04.177Z,73.61
2023-05-14T18:58:30.506Z,73.95
2023-05-14T19:00:58.894Z,74.30
2023-05-14T19:03:25.934Z,74.43
2023-05-14T19:05:53.064Z,73.99
2023-05-14T19:08:19.465Z,74.37
2023-05-14T19:10:45.827Z,74.88
2023-05-14T19:13:12.159Z,74.72
2023-05-14T19:15:38.782Z,74.31
2023-05-14T19:18:05.349Z,74.54
2023-05-14T19:20:31.792Z,74.31
2023-05-14T19:22:58.133Z,74.52
2023-05-14T19:25:24.944Z,74.97
2023-05-14T19:27:53.458Z,75.70
2023-05-14T19:30:20.417Z,75.80
2023-05-14T19:32:46.851Z,76.48
2023-05-14T19:35:13.624Z,76.54
2023-05-14T19:37:40.247Z,76.84
2023-05-14T19:40:07.233Z,76.14
2023-05-14T19:42:33.568Z,76.05
2023-05-14T19:44:59.916Z,75.22
2023-05-14T19:47:27.433Z,75.25
2023-05-14T19:49:53.821Z,74.97
2023-05-14T19:52:20.212Z,75.07
2023-05-14T19:54:47.107Z,75.46
2023-05-14T19:57:13.446Z,75.44
2023-05-14T19:59:40.307Z,75.65
2023-05-14T20:02:07.636Z,76.26
2023-05-14T20:04:34.762Z,76.37
2023-05-14T20:07:01.482Z,76.28
2023-05-14T20:09:27.798Z,76.71
2023-05-14T20:11:54.117Z,77.16
2023-05-14T20:14:20.553Z,77.62
2023-05-14T20:16:47.248Z,77.53
2023-05-14T20:19:14.137Z,78.18
2023-05-14T20:21:40.578Z,78.29
2023-05-14T20:24:06.954Z,78.40
2023-05-14T20:26:33.268Z,78.23
2023-05-14T20:28:59.611Z,78.17
2023-05-14T20:31:25.987Z,78.43
2023-05-14T20:33:52.322Z,78.19
2023-05-14T20:36:19.088Z,78.56
2023-05-14T20:38:45.611Z,78.59
2023-05-14T20:41:12.036Z,78.93
2023-05-14T20:43:38.438Z,78.88
2023-05-14T20:46:07.083Z,78.67
2023-05-14T20:48:33.436Z,78.92
2023-05-14T20:50:59.992Z,78.84
2023-05-14T20:53:28.168Z,79.12
2023-05-14T20:55:54.493Z,79.38
2023-05-14T20:58:20.908Z,79.47
2023-05-14T21:00:47.376Z,79.41
2023-05-14T21:03:13.812Z,79.41
2023-05-14T21:05:41.446Z,79.80
2023-05-14T21:08:07.865Z,80.08
2023-05-14T21:10:34.256Z,80.35
2023-05-14T21:13:00.877Z,80.04
2023-05-14T21:15:27.536Z,80.37
2023-05-14T21:17:54.203Z,80.54
2023-05-14T21:20:20.763Z,80.54
2023-05-14T21:22:47.082Z,80.76
2023-05-14T21:25:13.423Z,80.73
2023-05-14T21:27:40.006Z,80.97
2023-05-14T21:30:06.992Z,80.62
2023-05-14T21:32:33.402Z,80.73
2023-05-14T21:34:59.756Z,81.01
2023-05-14T21:37:26.156Z,81.17
2023-05-14T21:39:52.651Z,81.17
2023-05-14T21:42:20.898Z,81.20
2023-05-14T21:44:47.409Z,81.41
2023-05-14T21:47:14.156Z,81.61
2023-05-14T21:49:41.559Z,81.58
2023-05-14T21:52:07.940Z,81.87
2023-05-14T21:54:34.306Z,82.02
2023-05-14T21:57:01.525Z,82.07
2023-05-14T21:59:27.855Z,81.87
2023-05-14T22:04:23.430Z,82.21
2023-05-14T22:06:49.908Z,82.35
2023-05-14T22:09:16.224Z,82.20
2023-05-14T22:11:42.632Z,82.56
2023-05-14T22:14:08.956Z,82.06
2023-05-14T22:16:35.389Z,81.73
2023-05-14T22:19:02.192Z,82.24
2023-05-14T22:21:28.772Z,82.62
2023-05-14T22:23:55.082Z,82.68
2023-05-14T22:26:21.659Z,83.03
2023-05-14T22:28:49.482Z,83.03
2023-05-14T22:31:15.954Z,82.70
2023-05-14T22:33:42.329Z,82.47
2023-05-14T22:36:09.258Z,82.57
2023-05-14T22:38:35.909Z,82.43
2023-05-14T22:41:02.299Z,82.79
2023-05-14T22:43:28.640Z,82.90
2023-05-14T22:45:55.532Z,82.88
2023-05-14T22:48:21.891Z,82.91
2023-05-14T22:50:48.207Z,82.78
2023-05-14T22:53:14.653Z,82.89
2023-05-14T22:55:40.982Z,83.31
2023-05-14T22:58:07.298Z,83.56
2023-05-14T23:00:33.708Z,83.47
2023-05-14T23:03:00.175Z,83.93
2023-05-14T23:05:26.902Z,84.05
2023-05-14T23:07:53.499Z,84.30
2023-05-14T23:10:19.905Z,84.27
2023-05-14T23:12:46.225Z,84.59
2023-05-14T23:15:12.581Z,83.93
2023-05-14T23:17:40.753Z,84.43
2023-05-14T23:20:10.406Z,84.33
2023-05-14T23:22:36.734Z,84.70
2023-05-14T23:25:03.622Z,84.86
2023-05-14T23:27:29.957Z,84.78
2023-05-14T23:29:56.338Z,84.83
2023-05-14T23:32:22.881Z,84.42
2023-05-14T23:34:49.234Z,84.82
2023-05-14T23:37:15.652Z,84.79
2023-05-14T23:39:42.675Z,85.04
2023-05-14T23:42:09.019Z,84.97
2023-05-14T23:44:35.344Z,85.04
2023-05-14T23:47:01.880Z,85.10
2023-05-14T23:49:28.284Z,85.04
2023-05-14T23:51:54.596Z,85.37
2023-05-14T23:54:21.386Z,85.35
2023-05-14T23:56:47.891Z,85.72
2023-05-14T23:59:14.337Z,85.35
